createdAt,value
2022-10-24T00:01:19.978Z,95.05
2022-10-24T00:03:48.401Z,94.78
2022-10-24T00:06:16.321Z,94.27
2022-10-24T00:08:44.304Z,94.35
2022-10-24T00:11:24.712Z,94.42
2022-10-24T00:13:53.678Z,94.79
2022-10-24T00:16:20.689Z,95.13
2022-10-24T00:18:48.507Z,95.14
2022-10-24T00:21:15.523Z,95.19
2022-10-24T00:23:42.486Z,96.01
2022-10-24T00:26:10.608Z,96.28
2022-10-24T00:28:38.296Z,95.89
2022-10-24T00:31:07.734Z,96.14
2022-10-24T00:33:35.030Z,96.17
2022-10-24T00:36:01.833Z,96.06
2022-10-24T00:38:28.623Z,96.45
2022-10-24T00:40:55.433Z,96.35
2022-10-24T00:43:25.844Z,96.32
2022-10-24T00:46:02.044Z,96.28
2022-10-24T00:48:56.784Z,96.22
2022-10-24T00:51:29.382Z,96.42
2022-10-24T00:54:07.081Z,96.00
2022-10-24T00:56:47.968Z,96.50
2022-10-24T00:59:18.232Z,96.48
2022-10-24T01:01:46.431Z,96.85
2022-10-24T01:04:14.293Z,96.84
2022-10-24T01:07:09.764Z,96.77
2022-10-24T01:09:54.929Z,96.63
2022-10-24T01:12:48.201Z,96.86
2022-10-24T01:15:25.555Z,96.77
2022-10-24T01:18:01.287Z,97.01
2022-10-24T01:20:46.256Z,96.97
2022-10-24T01:23:53.237Z,96.74
2022-10-24T01:26:45.931Z,97.02
2022-10-24T01:29:41.263Z,97.06
2022-10-24T01:32:31.908Z,96.95
2022-10-24T01:35:14.207Z,96.93
2022-10-24T01:37:54.984Z,96.94
2022-10-24T01:40:39.090Z,97.17
2022-10-24T01:43:13.173Z,97.25
2022-10-24T01:45:46.431Z,97.35
2022-10-24T01:48:20.552Z,97.30
2022-10-24T01:50:49.984Z,97.58
2022-10-24T01:53:18.973Z,97.41
2022-10-24T01:55:49.380Z,97.33
2022-10-24T01:58:16.232Z,97.50
2022-10-24T02:00:44.960Z,97.21
2022-10-24T02:03:57.012Z,97.38
2022-10-24T02:06:38.397Z,97.13
2022-10-24T02:09:13.785Z,97.36
2022-10-24T02:11:42.542Z,97.09
2022-10-24T02:14:35.070Z,97.30
2022-10-24T02:17:03.672Z,97.38
2022-10-24T02:19:32.593Z,98.38
2022-10-24T02:22:24.625Z,98.32
2022-10-24T02:25:07.901Z,98.12
2022-10-24T02:27:53.892Z,97.89
2022-10-24T02:30:24.770Z,99.49
2022-10-24T02:32:58.768Z,98.96
2022-10-24T02:35:36.069Z,98.78
2022-10-24T02:38:23.345Z,99.36
2022-10-24T02:40:52.145Z,98.91
2022-10-24T02:43:21.688Z,98.71
2022-10-24T02:45:52.067Z,99.19
2022-10-24T02:48:25.632Z,98.98
2022-10-24T02:50:52.483Z,99.27
2022-10-24T02:53:22.164Z,99.55
2022-10-24T02:55:49.328Z,99.46
2022-10-24T02:58:17.218Z,99.43
2022-10-24T03:00:44.251Z,99.62
2022-10-24T03:03:11.211Z,99.17
2022-10-24T03:05:38.175Z,99.78
2022-10-24T03:08:05.590Z,99.50
2022-10-24T03:10:32.744Z,99.50
2022-10-24T03:13:00.853Z,99.61
2022-10-24T03:15:27.679Z,99.74
2022-10-24T03:17:54.497Z,99.47
2022-10-24T03:20:21.437Z,99.63
2022-10-24T03:22:48.566Z,99.76
2022-10-24T03:25:15.543Z,100.00
2022-10-24T03:27:42.655Z,100.00
2022-10-24T03:30:10.970Z,100.00
2022-10-24T03:32:37.806Z,99.77
2022-10-24T03:35:06.495Z,99.86
2022-10-24T03:37:34.967Z,99.95
2022-10-24T03:40:01.836Z,99.69
2022-10-24T03:42:28.658Z,99.76
2022-10-24T03:44:55.677Z,99.99
2022-10-24T03:47:23.197Z,100.00
2022-10-24T03:49:50.061Z,100.00
2022-10-24T03:52:17.255Z,99.74
2022-10-24T03:54:44.149Z,99.87
2022-10-24T03:57:11.084Z,100.00
2022-10-24T03:59:38.656Z,99.89
2022-10-24T04:02:06.262Z,100.00
2022-10-24T04:04:33.569Z,99.90
2022-10-24T04:07:00.625Z,99.69
2022-10-24T04:09:28.334Z,99.86
2022-10-24T04:11:55.238Z,99.92
2022-10-24T04:14:22.053Z,100.00
2022-10-24T04:16:49.386Z,99.89
2022-10-24T04:19:19.508Z,99.65
2022-10-24T04:21:48.137Z,99.73
2022-10-24T04:24:15.771Z,99.71
2022-10-24T04:26:43.264Z,99.64
2022-10-24T04:29:10.149Z,99.73
2022-10-24T04:31:37.110Z,99.68
2022-10-24T04:34:05.390Z,99.64
2022-10-24T04:36:33.889Z,99.78
2022-10-24T04:41:27.556Z,99.49
2022-10-24T04:43:54.698Z,99.61
2022-10-24T04:46:21.492Z,99.49
2022-10-24T04:48:48.321Z,99.44
2022-10-24T04:51:18.607Z,99.09
2022-10-24T04:53:48.408Z,99.13
2022-10-24T04:56:15.238Z,99.11
2022-10-24T04:58:42.215Z,99.20
2022-10-24T05:01:09.006Z,99.49
2022-10-24T05:03:35.936Z,99.06
2022-10-24T05:06:03.006Z,99.78
2022-10-24T05:08:29.797Z,99.55
2022-10-24T05:10:56.648Z,99.62
2022-10-24T05:13:23.412Z,100.00
2022-10-24T05:15:50.604Z,99.78
2022-10-24T05:18:17.504Z,99.73
2022-10-24T05:20:44.255Z,99.98
2022-10-24T05:23:11.093Z,99.86
2022-10-24T05:25:37.897Z,100.00
2022-10-24T05:28:04.877Z,99.92
2022-10-24T05:30:31.802Z,99.94
2022-10-24T05:32:58.974Z,99.77
2022-10-24T05:35:25.769Z,99.98
2022-10-24T05:37:52.551Z,99.76
2022-10-24T05:40:19.503Z,99.61
2022-10-24T05:42:46.562Z,99.81
2022-10-24T05:45:13.703Z,100.00
2022-10-24T05:47:40.642Z,99.82
2022-10-24T05:50:08.444Z,99.75
2022-10-24T05:52:36.619Z,99.74
2022-10-24T05:55:08.586Z,99.71
2022-10-24T05:57:37.908Z,99.78
2022-10-24T06:00:08.960Z,99.85
2022-10-24T06:02:36.222Z,99.71
2022-10-24T06:05:03.372Z,100.00
2022-10-24T06:07:31.838Z,99.96
2022-10-24T06:09:58.745Z,99.94
2022-10-24T06:12:25.552Z,99.97
2022-10-24T06:14:57.341Z,99.88
2022-10-24T06:17:24.432Z,99.97
2022-10-24T06:19:51.370Z,100.00
2022-10-24T06:22:19.146Z,99.85
2022-10-24T06:24:46.197Z,99.90
2022-10-24T06:27:13.735Z,99.99
2022-10-24T06:29:40.688Z,99.88
2022-10-24T06:32:07.590Z,99.71
2022-10-24T06:34:35.727Z,99.66
2022-10-24T06:37:03.335Z,99.60
2022-10-24T06:39:30.200Z,99.41
2022-10-24T06:41:57.040Z,99.47
2022-10-24T06:44:23.824Z,99.30
2022-10-24T06:46:50.687Z,99.02
2022-10-24T06:49:17.490Z,99.36
2022-10-24T06:51:44.825Z,99.20
2022-10-24T06:54:11.806Z,99.09
2022-10-24T06:56:38.605Z,99.18
2022-10-24T06:59:15.373Z,99.14
2022-10-24T07:01:43.100Z,98.78
2022-10-24T07:04:10.618Z,98.91
2022-10-24T07:06:37.501Z,99.03
2022-10-24T07:09:06.575Z,98.83
2022-10-24T07:11:34.646Z,98.96
2022-10-24T07:14:02.652Z,98.94
2022-10-24T07:16:31.349Z,98.73
2022-10-24T07:18:58.279Z,98.86
2022-10-24T07:21:28.417Z,99.00
2022-10-24T07:23:56.980Z,98.97
2022-10-24T07:26:25.762Z,99.29
2022-10-24T07:28:56.312Z,98.95
2022-10-24T07:31:27.173Z,99.30
2022-10-24T07:33:54.548Z,99.60
2022-10-24T07:36:25.391Z,99.55
2022-10-24T07:38:55.662Z,99.77
2022-10-24T07:41:24.720Z,99.88
2022-10-24T07:43:52.897Z,100.00
2022-10-24T07:46:19.770Z,100.00
2022-10-24T07:48:50.531Z,100.00
2022-10-24T07:51:19.136Z,100.00
2022-10-24T07:53:46.327Z,100.00
2022-10-24T07:56:17.692Z,100.00
2022-10-24T07:58:46.288Z,100.00
2022-10-24T08:01:18.971Z,100.00
2022-10-24T08:03:46.382Z,100.00
2022-10-24T08:06:18.931Z,100.00
2022-10-24T08:08:46.213Z,100.00
2022-10-24T08:11:22.041Z,100.00
2022-10-24T08:13:51.143Z,100.00
2022-10-24T08:16:21.506Z,100.00
2022-10-24T08:18:49.989Z,100.00
2022-10-24T08:21:20.624Z,100.00
2022-10-24T08:23:50.330Z,100.00
2022-10-24T08:26:20.380Z,100.00
2022-10-24T08:28:48.120Z,100.00
2022-10-24T08:31:19.237Z,100.00
2022-10-24T08:33:46.865Z,100.00
2022-10-24T08:36:26.164Z,100.00
2022-10-24T08:38:53.688Z,100.00
2022-10-24T08:41:59.267Z,100.00
2022-10-24T08:44:36.306Z,100.00
2022-10-24T08:50:33.636Z,100.00
2022-10-24T08:53:28.364Z,100.00
2022-10-24T08:55:59.078Z,99.68
2022-10-24T08:58:34.536Z,99.92
2022-10-24T09:01:07.682Z,99.85
2022-10-24T09:04:01.855Z,99.83
2022-10-24T09:06:32.620Z,99.39
2022-10-24T09:09:11.229Z,99.25
2022-10-24T09:11:52.757Z,98.19
2022-10-24T09:14:42.347Z,98.81
2022-10-24T09:17:22.509Z,98.53
2022-10-24T09:19:59.883Z,98.38
2022-10-24T09:22:32.754Z,97.67
2022-10-24T09:25:04.640Z,97.38
2022-10-24T09:27:38.781Z,96.82
2022-10-24T09:30:12.269Z,96.65
2022-10-24T09:32:39.157Z,96.33
2022-10-24T09:35:20.034Z,96.21
2022-10-24T09:37:56.095Z,96.14
2022-10-24T09:40:30.697Z,95.61
2022-10-24T09:43:17.443Z,95.50
2022-10-24T09:45:49.477Z,95.98
2022-10-24T09:48:29.214Z,95.88
2022-10-24T09:50:58.459Z,95.48
2022-10-24T09:53:33.326Z,95.21
2022-10-24T09:56:10.108Z,95.14
2022-10-24T09:58:37.695Z,93.92
2022-10-24T10:01:16.719Z,93.93
2022-10-24T10:03:44.510Z,93.37
2022-10-24T10:06:20.072Z,93.17
2022-10-24T10:08:56.953Z,93.24
2022-10-24T10:11:35.048Z,93.61
2022-10-24T10:14:25.845Z,93.57
2022-10-24T10:17:23.786Z,93.30
2022-10-24T10:19:52.068Z,93.32
2022-10-24T10:22:34.928Z,93.20
2022-10-24T10:25:02.348Z,93.15
2022-10-24T10:27:41.547Z,93.41
2022-10-24T10:30:17.330Z,93.09
2022-10-24T10:33:17.428Z,92.28
2022-10-24T10:35:53.189Z,92.23
2022-10-24T10:38:53.701Z,92.09
2022-10-24T10:41:49.336Z,91.92
2022-10-24T10:44:41.277Z,92.13
2022-10-24T10:47:43.360Z,91.75
2022-10-24T10:50:39.156Z,91.60
2022-10-24T10:53:51.423Z,90.83
2022-10-24T10:56:48.818Z,90.76
2022-10-24T11:00:01.642Z,89.81
2022-10-24T11:02:59.226Z,89.91
2022-10-24T11:05:54.556Z,90.25
2022-10-24T11:08:45.789Z,90.23
2022-10-24T11:15:22.052Z,89.62
2022-10-24T11:18:01.126Z,89.54
2022-10-24T11:20:35.525Z,89.01
2022-10-24T11:23:22.367Z,88.77
2022-10-24T11:25:55.712Z,88.63
2022-10-24T11:28:41.107Z,87.86
2022-10-24T11:31:17.694Z,88.22
2022-10-24T11:34:11.677Z,88.12
2022-10-24T11:37:01.948Z,87.89
2022-10-24T11:39:53.343Z,88.10
2022-10-24T11:42:34.516Z,88.51
2022-10-24T11:45:22.346Z,88.92
2022-10-24T11:48:26.432Z,89.28
2022-10-24T11:51:04.431Z,88.92
2022-10-24T11:53:34.510Z,88.83
2022-10-24T11:56:15.603Z,86.90
2022-10-24T11:58:59.007Z,86.66
2022-10-24T12:01:59.603Z,86.45
2022-10-24T12:04:46.078Z,86.60
2022-10-24T12:08:13.658Z,86.17
2022-10-24T12:11:09.757Z,85.93
2022-10-24T12:14:13.341Z,86.11
2022-10-24T12:17:17.471Z,85.79
2022-10-24T12:19:46.140Z,84.26
2022-10-24T12:22:27.982Z,82.72
2022-10-24T12:25:11.921Z,82.43
2022-10-24T12:27:40.567Z,82.05
2022-10-24T12:30:10.440Z,81.19
2022-10-24T12:32:45.192Z,80.97
2022-10-24T12:35:31.620Z,80.65
2022-10-24T12:37:58.951Z,79.20
2022-10-24T12:41:09.669Z,79.57
2022-10-24T12:43:42.726Z,79.18
2022-10-24T12:46:21.679Z,78.53
2022-10-24T12:48:59.012Z,78.33
2022-10-24T12:51:32.311Z,78.15
2022-10-24T12:54:17.095Z,77.71
2022-10-24T12:57:04.079Z,76.57
2022-10-24T13:00:01.159Z,76.24
2022-10-24T13:02:48.960Z,75.90
2022-10-24T13:05:53.798Z,76.53
2022-10-24T13:08:41.587Z,77.72
2022-10-24T13:11:36.564Z,78.13
2022-10-24T13:14:43.694Z,77.85
2022-10-24T13:17:22.819Z,76.32
2022-10-24T13:20:13.726Z,73.63
2022-10-24T13:22:41.818Z,72.93
2022-10-24T13:25:34.738Z,72.23
2022-10-24T13:28:22.570Z,72.10
2022-10-24T13:30:59.227Z,71.87
2022-10-24T13:33:29.013Z,72.18
2022-10-24T13:36:18.158Z,72.72
2022-10-24T13:38:58.775Z,73.68
2022-10-24T13:41:34.154Z,74.29
2022-10-24T13:44:10.356Z,75.13
2022-10-24T13:46:55.955Z,75.78
2022-10-24T13:49:33.098Z,75.64
2022-10-24T13:52:29.459Z,72.96
2022-10-24T13:58:00.988Z,70.71
2022-10-24T14:00:37.089Z,70.95
2022-10-24T14:03:10.834Z,72.34
2022-10-24T14:05:48.683Z,72.87
2022-10-24T14:08:38.606Z,72.49
2022-10-24T14:11:14.170Z,73.07
2022-10-24T14:14:07.114Z,73.37
2022-10-24T14:16:36.119Z,73.23
2022-10-24T14:19:17.603Z,73.23
2022-10-24T14:21:47.062Z,72.63
2022-10-24T14:24:19.755Z,73.17
2022-10-24T14:26:48.722Z,74.38
2022-10-24T14:29:27.875Z,74.82
2022-10-24T14:32:09.956Z,75.58
2022-10-24T14:34:39.605Z,75.61
2022-10-24T14:37:15.975Z,75.79
2022-10-24T14:39:44.211Z,75.88
2022-10-24T14:42:18.528Z,75.72
2022-10-24T14:44:46.979Z,76.79
2022-10-24T14:47:28.978Z,75.80
2022-10-24T14:49:56.776Z,77.26
2022-10-24T14:52:32.753Z,77.19
2022-10-24T14:55:17.404Z,77.82
2022-10-24T14:57:50.751Z,79.22
2022-10-24T15:00:37.022Z,81.00
2022-10-24T15:03:04.179Z,81.79
2022-10-24T15:05:34.067Z,82.02
2022-10-24T15:08:28.158Z,82.84
2022-10-24T15:11:07.143Z,83.20
2022-10-24T15:14:05.228Z,83.56
2022-10-24T15:16:40.133Z,83.82
2022-10-24T15:19:15.341Z,84.52
2022-10-24T15:21:45.239Z,84.77
2022-10-24T15:24:26.147Z,85.18
2022-10-24T15:27:09.315Z,85.12
2022-10-24T15:29:36.503Z,85.37
2022-10-24T15:32:06.338Z,85.51
2022-10-24T15:34:34.712Z,85.14
2022-10-24T15:37:04.051Z,85.21
2022-10-24T15:39:30.830Z,85.13
2022-10-24T15:41:57.799Z,85.40
2022-10-24T15:44:29.527Z,85.52
2022-10-24T15:46:56.516Z,85.75
2022-10-24T15:49:23.358Z,86.21
2022-10-24T15:51:51.119Z,86.40
2022-10-24T15:54:21.068Z,86.16
2022-10-24T15:56:49.139Z,86.21
2022-10-24T15:59:15.979Z,85.86
2022-10-24T16:01:48.860Z,85.81
2022-10-24T16:04:16.731Z,85.25
2022-10-24T16:06:43.567Z,85.29
2022-10-24T16:09:27.596Z,85.29
2022-10-24T16:11:55.275Z,85.26
2022-10-24T16:14:26.021Z,85.38
2022-10-24T16:16:55.210Z,84.80
2022-10-24T16:19:24.042Z,84.66
2022-10-24T16:21:50.812Z,84.37
2022-10-24T16:24:18.575Z,85.01
2022-10-24T16:26:45.405Z,85.21
2022-10-24T16:29:12.184Z,85.64
2022-10-24T16:31:39.149Z,85.68
2022-10-24T16:34:07.518Z,85.86
2022-10-24T16:36:34.878Z,86.14
2022-10-24T16:39:01.724Z,86.40
2022-10-24T16:41:28.683Z,86.66
2022-10-24T16:43:57.855Z,86.76
2022-10-24T16:46:27.569Z,86.61
2022-10-24T16:48:55.218Z,86.56
2022-10-24T16:51:27.710Z,86.27
2022-10-24T16:53:54.520Z,85.74
2022-10-24T16:56:21.373Z,85.78
2022-10-24T16:58:48.122Z,85.38
2022-10-24T17:01:16.982Z,85.24
2022-10-24T17:03:47.584Z,84.73
2022-10-24T17:06:15.280Z,84.92
2022-10-24T17:08:42.264Z,84.59
2022-10-24T17:11:26.076Z,84.78
2022-10-24T17:13:58.470Z,84.93
2022-10-24T17:16:25.792Z,84.98
2022-10-24T17:19:05.918Z,85.16
2022-10-24T17:21:42.060Z,85.19
2022-10-24T17:24:13.184Z,84.94
2022-10-24T17:26:41.551Z,85.13
2022-10-24T17:29:13.187Z,85.61
2022-10-24T17:31:40.017Z,85.60
2022-10-24T17:34:07.159Z,85.51
2022-10-24T17:36:38.968Z,85.76
2022-10-24T17:39:13.538Z,85.44
2022-10-24T17:41:41.666Z,85.83
2022-10-24T17:44:17.154Z,85.98
2022-10-24T17:46:45.535Z,86.36
2022-10-24T17:49:21.929Z,86.18
2022-10-24T17:51:49.150Z,86.32
2022-10-24T17:54:16.997Z,86.29
2022-10-24T17:56:44.122Z,86.08
2022-10-24T17:59:11.115Z,85.90
2022-10-24T18:01:38.663Z,86.29
2022-10-24T18:04:05.604Z,86.24
2022-10-24T18:06:32.999Z,86.19
2022-10-24T18:09:00.241Z,85.77
2022-10-24T18:11:27.071Z,86.24
2022-10-24T18:13:54.262Z,86.43
2022-10-24T18:16:21.583Z,86.46
2022-10-24T18:18:48.987Z,86.62
2022-10-24T18:21:22.494Z,87.09
2022-10-24T18:23:49.355Z,87.41
2022-10-24T18:26:19.676Z,87.52
2022-10-24T18:28:50.225Z,87.66
2022-10-24T18:31:24.329Z,87.89
2022-10-24T18:33:52.003Z,87.54
2022-10-24T18:36:25.269Z,87.55
2022-10-24T18:38:55.095Z,87.46
2022-10-24T18:41:28.980Z,87.50
2022-10-24T18:43:59.503Z,87.66
2022-10-24T18:46:27.973Z,87.25
2022-10-24T18:48:55.631Z,87.74
2022-10-24T18:51:59.675Z,87.41
2022-10-24T18:54:26.819Z,87.38
2022-10-24T18:56:53.818Z,87.73
2022-10-24T18:59:22.036Z,87.78
2022-10-24T19:02:25.582Z,87.70
2022-10-24T19:05:15.139Z,88.22
2022-10-24T19:07:43.137Z,88.22
2022-10-24T19:10:24.438Z,88.31
2022-10-24T19:12:52.586Z,88.28
2022-10-24T19:15:20.179Z,88.25
2022-10-24T19:17:48.101Z,88.25
2022-10-24T19:20:21.646Z,88.43
2022-10-24T19:22:49.098Z,88.52
2022-10-24T19:25:17.283Z,88.65
2022-10-24T19:27:44.538Z,88.83
2022-10-24T19:30:12.647Z,89.09
2022-10-24T19:32:39.485Z,89.20
2022-10-24T19:35:07.055Z,89.23
2022-10-24T19:37:33.853Z,89.97
2022-10-24T19:40:00.704Z,90.04
2022-10-24T19:42:27.590Z,90.10
2022-10-24T19:44:56.521Z,90.01
2022-10-24T19:47:23.503Z,90.35
2022-10-24T19:49:50.362Z,90.74
2022-10-24T19:52:17.582Z,90.27
2022-10-24T19:54:44.647Z,90.34
2022-10-24T19:57:12.171Z,90.37
2022-10-24T19:59:39.218Z,90.49
2022-10-24T20:02:06.124Z,90.69
2022-10-24T20:04:33.011Z,90.68
2022-10-24T20:06:59.760Z,90.60
2022-10-24T20:09:26.589Z,90.58
2022-10-24T20:11:53.582Z,90.59
2022-10-24T20:14:20.375Z,90.86
2022-10-24T20:16:47.167Z,91.20
2022-10-24T20:19:13.966Z,90.72
2022-10-24T20:21:40.803Z,90.93
2022-10-24T20:24:08.534Z,91.04
2022-10-24T20:26:35.746Z,90.97
2022-10-24T20:29:03.569Z,90.79
2022-10-24T20:31:38.518Z,90.75
2022-10-24T20:34:10.921Z,90.62
2022-10-24T20:36:44.731Z,90.48
2022-10-24T20:39:12.315Z,90.68
2022-10-24T20:41:39.310Z,91.08
2022-10-24T20:44:07.300Z,90.86
2022-10-24T20:46:35.582Z,90.81
2022-10-24T20:49:02.515Z,91.56
2022-10-24T20:51:29.695Z,91.45
2022-10-24T20:53:56.528Z,91.30
2022-10-24T20:56:26.191Z,91.21
2022-10-24T20:58:55.603Z,91.19
2022-10-24T21:01:26.389Z,91.34
2022-10-24T21:03:55.166Z,91.31
2022-10-24T21:06:24.118Z,91.36
2022-10-24T21:08:54.502Z,91.42
2022-10-24T21:11:27.637Z,91.54
2022-10-24T21:13:57.574Z,91.55
2022-10-24T21:16:25.826Z,91.56
2022-10-24T21:18:53.319Z,91.99
2022-10-24T21:21:22.000Z,91.88
2022-10-24T21:23:54.761Z,91.87
2022-10-24T21:26:22.502Z,92.59
2022-10-24T21:28:50.005Z,92.70
2022-10-24T21:31:19.786Z,93.05
2022-10-24T21:33:49.935Z,92.85
2022-10-24T21:36:20.199Z,92.64
2022-10-24T21:38:51.088Z,93.22
2022-10-24T21:41:19.095Z,93.03
2022-10-24T21:43:47.059Z,93.51
2022-10-24T21:46:18.991Z,93.49
2022-10-24T21:48:47.042Z,93.57
2022-10-24T21:51:28.745Z,93.47
2022-10-24T21:53:59.494Z,93.43
2022-10-24T21:56:30.418Z,93.31
2022-10-24T22:01:36.940Z,93.42
2022-10-24T22:04:05.534Z,93.42
2022-10-24T22:06:34.414Z,93.45
2022-10-24T22:09:02.155Z,93.32
2022-10-24T22:11:31.982Z,93.46
2022-10-24T22:13:59.430Z,93.38
2022-10-24T22:16:29.627Z,93.47
2022-10-24T22:18:59.825Z,93.36
2022-10-24T22:21:31.515Z,93.56
2022-10-24T22:24:01.244Z,93.65
2022-10-24T22:26:28.659Z,93.48
2022-10-24T22:28:56.532Z,93.61
2022-10-24T22:31:26.199Z,93.65
2022-10-24T22:33:54.298Z,93.51
2022-10-24T22:36:43.500Z,93.52
2022-10-24T22:39:20.473Z,93.94
2022-10-24T22:41:48.355Z,93.93
2022-10-24T22:44:17.987Z,93.98
2022-10-24T22:47:26.951Z,94.16
2022-10-24T22:50:38.699Z,94.47
2022-10-24T22:53:12.495Z,94.13
2022-10-24T22:55:54.245Z,94.15
2022-10-24T22:58:22.101Z,94.25
2022-10-24T23:00:56.117Z,94.45
2022-10-24T23:03:33.408Z,94.63
2022-10-24T23:06:27.464Z,94.72
2022-10-24T23:08:54.213Z,94.85
2022-10-24T23:11:21.487Z,95.10
2022-10-24T23:13:48.695Z,94.82
2022-10-24T23:16:35.458Z,94.64
2022-10-24T23:19:18.914Z,94.61
2022-10-24T23:21:57.840Z,94.43
2022-10-24T23:24:24.990Z,94.30
2022-10-24T23:27:03.831Z,94.48
2022-10-24T23:29:34.156Z,94.12
2022-10-24T23:32:02.841Z,94.01
2022-10-24T23:34:30.068Z,93.99
2022-10-24T23:37:04.254Z,93.87
2022-10-24T23:39:35.639Z,93.68
2022-10-24T23:42:03.628Z,93.91
2022-10-24T23:44:30.780Z,93.77
2022-10-24T23:47:14.013Z,93.99
2022-10-24T23:50:03.851Z,94.52
2022-10-24T23:53:00.760Z,94.48
2022-10-24T23:55:28.084Z,95.02
2022-10-24T23:57:54.853Z,95.16
